GCRR/ACE METAR and TAF weather

Enter ICAO airport designator
Station Type Date Time Source
GCRR METAR 2020/08/15 17:00 UTC NOAA

GCRR 151700Z 01026KT 9999 FEW030 27/18 Q1015


Station Type Date Time Source
GCRR Decoded METAR 2020/08/15 17:00 UTC NOAA

Lanzarote / Aeropuerto, Spain (GCRR) 28-57N 013-36W 21M
Aug 15, 2020 - 01:00 PM EDT / 2020.08.15 1700 UTC
Wind: from the N (010 degrees) at 30 MPH (26 KT):0
Visibility: greater than 7 mile(s):0
Sky conditions: mostly clear
Temperature: 80 F (27 C)
Dew Point: 64 F (18 C)
Relative Humidity: 57%
Pressure (altimeter): 29.97 in. Hg (1015 hPa)
ob: GCRR 151700Z 01026KT 9999 FEW030 27/18 Q1015
cycle: 17

Station Type Date Time Source
GCRR TAF 2020/08/15 15:27 UTC NOAA

TAF GCRR 151400Z 1515/1615 02018KT 9999 FEW030 TX29/1614Z TN21/1606Z PROB30
TEMPO 1515/1520 02018G28KT PROB40
TEMPO 1609/1615 02022G32KT

Example: see airport list